Aurora, North Carolina
Current Conditions -  °F | °C
As of 2:54 PM on Monday 24 Nov 2014 (Local Time) from KEWN Reporting Station
Overcast Overcast  
Wind Chill: 73°   Ceiling: 1100
Heat Index: 73°   Visibility: 8mi
Dew Point: 68°   Wind: 14mph
Humidity: 84%   Direction: 210°SSW
Pressure: 29.86"   Gusts: NA
Location:  35.31°N, 76.79°W
Report Text: KEWN 241954Z 21012KT 8SM OVC011 23/20 A2986 RMK AO2 RAE03 SLP111 P0000 T02280200
Loading
Personal Weather Stations






























Interactive Weather Map New forecast layout! Learn more

10-Day Weather Forecast

Advertisements
Track Severe Weather on mobile